Time;durP1;ratioP1;P1;durP2;ratioP2;P2;SDS_P1;SDS_P2;PMS_P1;PMS_P2;Temp;Humidity;BMP_temperature;BMP_pressure;BME280_temperature;BME280_humidity;BME280_pressure;Samples;Min_cycle;Max_cycle;Signal;HPM_P1;HPM_P2
2024/01/01 00:00:05;;;;;;;147.63;91.70;;;;;;;7.90;92.57;99853.03;4972892;28;20199;-68
2024/01/01 00:02:43;;;;;;;162.57;98.45;;;;;;;8.08;92.01;99866.72;4969303;28;20200;-67
2024/01/01 00:05:14;;;;;;;160.73;86.78;;;;;;;7.89;92.75;99865.69;4968529;28;20227;-67
2024/01/01 00:07:50;;;;;;;124.70;75.35;;;;;;;8.29;95.22;99858.34;4973859;28;20206;-69
2024/01/01 00:10:22;;;;;;;144.60;77.03;;;;;;;8.26;93.10;99865.00;4974947;28;20235;-68
2024/01/01 00:12:56;;;;;;;127.50;73.85;;;;;;;8.49;95.32;99844.81;4976255;28;20324;-69
2024/01/01 00:15:32;;;;;;;118.07;74.78;;;;;;;8.22;90.70;99849.47;4968210;28;20210;-69
2024/01/01 00:18:10;;;;;;;130.38;73.40;;;;;;;8.01;92.04;99850.53;4973609;28;20191;-66
2024/01/01 00:20:41;;;;;;;136.02;79.78;;;;;;;8.28;92.13;99851.28;4963479;28;20214;-68
2024/01/01 00:23:15;;;;;;;120.25;71.32;;;;;;;8.09;91.93;99847.63;4972081;28;20203;-67
2024/01/01 00:25:49;;;;;;;109.32;68.18;;;;;;;8.19;97.13;99842.59;4969974;28;20569;-67
2024/01/01 00:28:20;;;;;;;152.02;74.88;;;;;;;8.42;92.70;99841.34;4974230;28;20579;-68
2024/01/01 00:30:51;;;;;;;120.63;70.55;;;;;;;8.34;94.64;99849.63;4978167;28;20196;-68
2024/01/01 00:33:26;;;;;;;113.97;70.22;;;;;;;7.69;92.41;99843.34;4981241;28;20196;-66
2024/01/01 00:36:00;;;;;;;112.78;61.58;;;;;;;8.52;95.39;99847.91;4975031;28;20222;-68
2024/01/01 00:38:32;;;;;;;124.53;70.85;;;;;;;8.62;92.81;99845.59;4972797;28;20191;-68
2024/01/01 00:41:05;;;;;;;106.10;59.65;;;;;;;8.08;90.15;99850.53;4966459;28;20216;-68
2024/01/01 00:43:39;;;;;;;86.80;55.25;;;;;;;8.44;94.27;99834.69;4971702;28;20279;-67
2024/01/01 00:46:14;;;;;;;99.03;57.25;;;;;;;8.51;93.76;99842.75;4971571;28;20226;-67
2024/01/01 00:48:50;;;;;;;91.28;51.80;;;;;;;8.56;93.18;99843.75;4970465;28;20672;-67
2024/01/01 00:51:22;;;;;;;63.10;41.92;;;;;;;7.86;91.01;99849.94;4960513;28;20219;-67
2024/01/01 00:53:55;;;;;;;68.78;36.38;;;;;;;7.63;93.05;99841.50;4967576;28;20212;-68
2024/01/01 00:56:27;;;;;;;51.80;35.38;;;;;;;7.83;97.20;99847.69;4974302;28;20227;-67
2024/01/01 00:58:58;;;;;;;52.13;34.38;;;;;;;8.18;99.32;99843.66;4978632;28;20279;-68
2024/01/01 01:01:32;;;;;;;57.75;31.75;;;;;;;8.39;95.72;99844.44;4973097;28;20212;-68
2024/01/01 01:04:09;;;;;;;51.40;32.63;;;;;;;7.85;91.73;99842.91;4974420;28;20195;-67
2024/01/01 01:06:43;;;;;;;40.28;26.15;;;;;;;7.76;92.24;99855.75;4968571;28;20215;-67
2024/01/01 01:09:14;;;;;;;40.10;26.00;;;;;;;7.87;95.32;99851.63;4971442;28;20195;-68
2024/01/01 01:11:50;;;;;;;48.08;26.63;;;;;;;8.04;95.61;99851.97;4977954;28;20258;-67
2024/01/01 01:14:22;;;;;;;43.17;27.75;;;;;;;7.96;96.53;99850.34;4973525;28;20570;-68
2024/01/01 01:16:54;;;;;;;53.65;32.53;;;;;;;8.59;97.27;99848.72;4976277;28;20211;-69
2024/01/01 01:19:28;;;;;;;53.95;33.00;;;;;;;8.79;94.49;99853.19;4977116;28;20197;-68
2024/01/01 01:22:04;;;;;;;47.63;31.95;;;;;;;8.46;93.54;99854.19;4964021;28;20636;-68
2024/01/01 01:24:35;;;;;;;52.45;32.05;;;;;;;7.96;94.43;99847.66;4966442;28;20199;-69
2024/01/01 01:27:09;;;;;;;44.45;26.50;;;;;;;7.61;95.43;99844.38;4970333;28;20218;-68
2024/01/01 01:29:42;;;;;;;41.30;27.38;;;;;;;7.95;97.10;99854.06;4973840;28;20250;-69
2024/01/01 01:32:18;;;;;;;44.17;26.60;;;;;;;7.86;96.70;99844.56;4967350;28;20274;-68
2024/01/01 01:34:55;;;;;;;33.03;18.77;;;;;;;8.48;98.25;99848.53;4973292;28;20208;-68
2024/01/01 01:37:54;;;;;;;29.85;19.55;;;;;;;8.43;94.87;99849.19;4968989;28;20211;-67
2024/01/01 01:40:25;;;;;;;40.53;26.15;;;;;;;8.77;96.79;99848.00;4990075;28;20198;-68
2024/01/01 01:42:57;;;;;;;24.85;14.70;;;;;;;8.88;86.68;99850.00;4971877;28;20299;-68
2024/01/01 01:45:32;;;;;;;20.10;14.85;;;;;;;8.29;88.08;99845.72;4971256;28;20229;-68
2024/01/01 01:48:04;;;;;;;23.27;17.80;;;;;;;8.48;93.35;99846.69;4966077;28;20200;-68
2024/01/01 01:50:40;;;;;;;15.02;13.15;;;;;;;8.80;91.05;99847.59;4970188;28;20250;-68
2024/01/01 01:53:12;;;;;;;24.70;18.35;;;;;;;8.37;90.70;99843.84;4987084;28;20269;-67
2024/01/01 01:55:47;;;;;;;37.72;16.83;;;;;;;8.51;93.91;99845.44;4967519;28;20222;-68
2024/01/01 01:58:21;;;;;;;39.30;28.75;;;;;;;8.72;94.53;99843.25;4968112;28;20192;-67
2024/01/01 02:00:54;;;;;;;18.05;12.68;;;;;;;8.59;91.72;99832.53;4965529;28;20199;-68
2024/01/01 02:03:27;;;;;;;35.07;26.63;;;;;;;7.98;91.14;99831.28;4964543;28;20192;-69
2024/01/01 02:06:04;;;;;;;25.67;16.33;;;;;;;8.08;91.63;99824.44;4951051;28;21082;-68
2024/01/01 02:08:40;;;;;;;37.50;25.35;;;;;;;7.28;91.69;99833.63;4973655;28;20298;-68
2024/01/01 02:11:12;;;;;;;28.95;16.15;;;;;;;6.84;94.27;99830.66;4961290;28;20211;-68
2024/01/01 02:13:47;;;;;;;14.60;11.13;;;;;;;6.42;96.84;99824.56;4971361;28;20199;-68
2024/01/01 02:16:18;;;;;;;16.95;11.65;;;;;;;6.37;98.41;99827.03;4966934;28;20219;-68
2024/01/01 02:18:50;;;;;;;20.17;12.23;;;;;;;6.26;98.47;99827.59;4966014;28;20203;-68
2024/01/01 02:21:27;;;;;;;61.05;34.65;;;;;;;6.01;100.00;99818.38;4967427;28;20223;-68
2024/01/01 02:24:03;;;;;;;31.25;21.40;;;;;;;5.92;100.00;99815.03;4972485;28;20302;-68
2024/01/01 02:26:35;;;;;;;51.40;32.22;;;;;;;5.96;100.00;99818.97;4966922;28;20225;-67
2024/01/01 02:29:09;;;;;;;18.05;14.15;;;;;;;6.00;100.00;99824.78;4968449;28;20700;-68
2024/01/01 02:31:46;;;;;;;12.35;9.60;;;;;;;5.79;100.00;99817.59;4958471;28;20641;-67
2024/01/01 02:34:22;;;;;;;11.95;8.57;;;;;;;5.79;100.00;99825.66;4971447;28;20227;-68
2024/01/01 02:36:55;;;;;;;20.27;12.20;;;;;;;5.74;100.00;99821.91;4975970;28;20667;-68
2024/01/01 02:39:30;;;;;;;40.90;19.98;;;;;;;5.81;100.00;99823.59;4954423;29;20195;-67
2024/01/01 02:42:02;;;;;;;11.13;8.38;;;;;;;5.87;100.00;99814.78;4968279;28;20215;-68
2024/01/01 02:44:38;;;;;;;70.40;50.75;;;;;;;5.71;100.00;99816.94;4969976;28;20547;-69
2024/01/01 02:47:12;;;;;;;23.13;15.38;;;;;;;5.63;100.00;99826.78;4961166;28;20199;-69
2024/01/01 02:49:45;;;;;;;12.82;10.73;;;;;;;5.66;100.00;99829.06;4969949;28;20186;-68
2024/01/01 02:52:20;;;;;;;8.77;7.35;;;;;;;5.58;100.00;99828.41;4962252;28;20191;-69
2024/01/01 02:54:56;;;;;;;13.30;8.70;;;;;;;5.74;100.00;99830.78;4975086;28;20231;-68
2024/01/01 02:57:29;;;;;;;21.45;12.88;;;;;;;5.79;100.00;99822.16;4967703;28;20195;-67
2024/01/01 03:00:04;;;;;;;8.32;7.47;;;;;;;5.69;100.00;99823.34;4970710;28;20197;-69
2024/01/01 03:02:39;;;;;;;15.10;9.77;;;;;;;5.58;100.00;99825.72;4977181;28;20223;-68
2024/01/01 03:05:11;;;;;;;13.25;9.70;;;;;;;5.57;100.00;99821.38;4969414;28;20218;-67
2024/01/01 03:07:47;;;;;;;8.98;8.15;;;;;;;5.59;100.00;99830.06;4967255;28;20348;-67
2024/01/01 03:10:24;;;;;;;7.03;6.18;;;;;;;5.39;100.00;99823.72;4971014;28;20256;-67
2024/01/01 03:13:00;;;;;;;6.10;5.53;;;;;;;5.35;100.00;99820.59;4972756;28;20202;-68
2024/01/01 03:15:35;;;;;;;8.93;7.97;;;;;;;5.48;100.00;99823.38;4970643;28;20223;-69
2024/01/01 03:18:11;;;;;;;10.95;9.75;;;;;;;5.46;100.00;99825.44;4965943;28;20259;-67
2024/01/01 03:20:43;;;;;;;17.00;8.80;;;;;;;5.36;100.00;99827.63;4971533;28;20228;-68
2024/01/01 03:23:20;;;;;;;4.60;4.10;;;;;;;5.32;100.00;99822.84;4972748;28;20588;-65
2024/01/01 03:25:58;;;;;;;7.57;5.75;;;;;;;5.36;100.00;99824.13;4976392;28;20218;-67
2024/01/01 03:28:31;;;;;;;8.45;6.75;;;;;;;5.33;100.00;99819.13;4973408;28;20207;-67
2024/01/01 03:31:06;;;;;;;7.97;4.50;;;;;;;5.38;100.00;99817.53;4967650;28;20231;-67
2024/01/01 03:33:39;;;;;;;6.68;4.53;;;;;;;5.52;100.00;99807.72;4970457;28;20262;-68
2024/01/01 03:36:18;;;;;;;8.82;8.02;;;;;;;5.54;100.00;99811.88;4972362;28;20277;-66
2024/01/01 03:38:55;;;;;;;5.45;5.05;;;;;;;5.65;100.00;99822.06;4960586;28;20635;-67
2024/01/01 03:41:30;;;;;;;13.45;5.10;;;;;;;5.57;100.00;99816.84;4967376;28;20251;-68
2024/01/01 03:44:06;;;;;;;9.82;6.18;;;;;;;5.77;100.00;99818.81;4973872;28;20237;-67
2024/01/01 03:46:39;;;;;;;7.32;5.90;;;;;;;5.92;100.00;99820.41;4986048;28;20719;-67
2024/01/01 03:49:15;;;;;;;5.50;5.00;;;;;;;6.06;100.00;99816.75;4969169;28;20617;-67
2024/01/01 03:51:50;;;;;;;5.13;4.55;;;;;;;5.97;100.00;99819.81;4972058;28;20249;-67
2024/01/01 03:54:22;;;;;;;7.00;5.43;;;;;;;5.99;100.00;99826.66;4974035;28;20213;-65
2024/01/01 03:56:57;;;;;;;4.60;4.20;;;;;;;5.86;100.00;99825.69;4963276;28;20295;-67
2024/01/01 03:59:30;;;;;;;5.40;4.90;;;;;;;5.96;100.00;99820.81;4969197;28;20297;-67
2024/01/01 04:02:02;;;;;;;7.25;5.88;;;;;;;5.85;100.00;99819.50;4970006;28;20707;-68
2024/01/01 04:04:35;;;;;;;6.05;4.30;;;;;;;5.65;100.00;99824.75;4971729;28;20574;-68
2024/01/01 04:07:08;;;;;;;9.80;5.05;;;;;;;5.53;100.00;99825.47;4955867;28;20200;-68
2024/01/01 04:09:43;;;;;;;8.05;4.72;;;;;;;5.62;100.00;99818.94;4962104;28;20291;-67
2024/01/01 04:12:18;;;;;;;6.00;5.50;;;;;;;5.51;100.00;99822.19;4965780;28;20202;-67
2024/01/01 04:14:51;;;;;;;9.48;8.50;;;;;;;5.54;100.00;99814.56;4960970;28;20208;-67
2024/01/01 04:17:27;;;;;;;5.78;4.15;;;;;;;5.56;100.00;99811.69;4968296;28;20254;-68
2024/01/01 04:20:01;;;;;;;8.27;4.13;;;;;;;5.47;100.00;99808.28;4971452;28;20218;-68
2024/01/01 04:22:33;;;;;;;6.60;4.63;;;;;;;5.47;100.00;99813.66;4958057;28;20306;-68
2024/01/01 04:25:12;;;;;;;7.18;5.03;;;;;;;5.55;100.00;99818.06;4971453;28;20231;-67
2024/01/01 04:27:45;;;;;;;8.18;6.40;;;;;;;5.54;100.00;99811.88;4963260;28;20196;-68
2024/01/01 04:30:17;;;;;;;12.10;5.95;;;;;;;5.64;100.00;99808.84;4970454;28;20249;-68
2024/01/01 04:32:50;;;;;;;5.55;4.78;;;;;;;5.60;100.00;99819.16;4970531;28;20196;-68
2024/01/01 04:35:22;;;;;;;6.13;4.40;;;;;;;5.87;100.00;99811.28;4963973;28;20588;-68
2024/01/01 04:37:55;;;;;;;6.50;5.32;;;;;;;5.99;100.00;99815.91;4971998;28;20742;-68
2024/01/01 04:40:32;;;;;;;5.20;4.22;;;;;;;6.19;99.54;99821.38;4965205;28;20210;-68
2024/01/01 04:43:09;;;;;;;6.28;4.85;;;;;;;6.16;99.02;99810.19;4960342;28;20636;-68
2024/01/01 04:45:43;;;;;;;7.03;5.07;;;;;;;6.32;97.68;99816.06;4966165;28;20685;-68
2024/01/01 04:48:17;;;;;;;6.75;5.00;;;;;;;6.21;98.18;99813.94;4974793;28;20203;-67
2024/01/01 04:50:55;;;;;;;8.73;4.45;;;;;;;6.33;97.40;99816.88;4974444;28;20195;-68
2024/01/01 04:53:39;;;;;;;5.40;4.15;;;;;;;6.33;97.01;99815.03;4963006;28;20195;-67
2024/01/01 04:56:12;;;;;;;7.00;5.70;;;;;;;6.36;97.27;99816.47;4960989;28;20232;-67
2024/01/01 04:58:46;;;;;;;8.20;5.35;;;;;;;6.25;97.62;99820.56;4975554;28;20183;-67
2024/01/01 05:01:20;;;;;;;9.35;5.07;;;;;;;6.30;97.72;99815.41;4969338;28;20258;-67
2024/01/01 05:03:53;;;;;;;7.30;5.70;;;;;;;6.45;96.41;99809.88;4969835;28;20213;-68
2024/01/01 05:06:34;;;;;;;12.02;6.53;;;;;;;6.32;97.12;99810.69;4954733;28;20226;-67
2024/01/01 05:09:08;;;;;;;11.45;6.80;;;;;;;6.46;96.52;99796.25;4966999;28;20208;-68
2024/01/01 05:11:44;;;;;;;7.07;4.82;;;;;;;6.38;96.00;99799.13;4972071;28;20678;-68
2024/01/01 05:14:20;;;;;;;8.32;4.88;;;;;;;6.54;95.88;99792.53;4963034;28;20191;-67
2024/01/01 05:16:53;;;;;;;8.15;4.40;;;;;;;6.42;96.09;99791.50;4969629;28;20215;-67
2024/01/01 05:19:25;;;;;;;7.18;6.28;;;;;;;6.48;96.18;99791.53;4983245;28;20626;-68
2024/01/01 05:22:03;;;;;;;8.73;6.30;;;;;;;6.36;95.96;99790.44;4970771;28;20203;-66
2024/01/01 05:24:37;;;;;;;5.57;3.45;;;;;;;6.29;96.63;99789.59;4972139;28;20218;-66
2024/01/01 05:27:09;;;;;;;10.25;7.60;;;;;;;6.38;96.43;99788.38;4968206;28;20207;-68
2024/01/01 05:29:45;;;;;;;6.57;3.83;;;;;;;6.34;96.46;99789.78;4970426;28;20347;-68
2024/01/01 05:32:18;;;;;;;9.75;5.45;;;;;;;6.44;96.06;99778.66;4971452;28;20199;-68
2024/01/01 05:34:54;;;;;;;14.30;4.47;;;;;;;6.47;95.86;99780.97;4960181;28;20310;-68
2024/01/01 05:37:30;;;;;;;10.88;4.80;;;;;;;6.53;95.19;99786.34;4961779;28;20619;-67
2024/01/01 05:40:02;;;;;;;5.97;5.35;;;;;;;6.55;94.55;99784.28;4974626;28;20192;-67
2024/01/01 05:42:37;;;;;;;7.88;5.28;;;;;;;6.59;95.01;99789.25;4973231;28;20199;-68
2024/01/01 05:45:12;;;;;;;8.05;6.72;;;;;;;6.61;95.28;99793.41;4972929;28;20351;-68
2024/01/01 05:47:47;;;;;;;7.10;6.40;;;;;;;6.42;95.88;99796.84;4970120;28;20578;-68
2024/01/01 05:50:23;;;;;;;5.93;4.75;;;;;;;6.35;96.32;99799.50;4970203;28;20191;-70
2024/01/01 05:53:01;;;;;;;5.18;4.57;;;;;;;6.24;96.73;99802.81;4956972;28;20203;-68
2024/01/01 05:55:38;;;;;;;6.25;4.63;;;;;;;6.38;96.74;99811.75;4964188;28;20223;-68
2024/01/01 05:58:13;;;;;;;5.57;4.00;;;;;;;6.24;97.18;99810.88;4962909;28;20204;-68
2024/01/01 06:00:49;;;;;;;6.28;4.57;;;;;;;6.43;96.71;99811.97;4970811;28;20191;-67
2024/01/01 06:03:21;;;;;;;5.25;3.60;;;;;;;6.46;97.92;99812.38;4973351;28;20297;-67
2024/01/01 06:05:53;;;;;;;5.80;4.68;;;;;;;6.36;99.19;99805.72;4967133;28;20581;-67
2024/01/01 06:08:33;;;;;;;5.57;4.53;;;;;;;6.39;99.84;99805.34;4959021;28;20191;-67
2024/01/01 06:11:08;;;;;;;5.10;3.75;;;;;;;6.44;100.00;99806.38;4963434;28;20199;-66
2024/01/01 06:13:41;;;;;;;5.18;4.10;;;;;;;6.46;100.00;99807.00;4961640;28;20204;-68
2024/01/01 06:16:15;;;;;;;6.40;4.78;;;;;;;6.51;100.00;99807.22;4963430;28;20246;-67
2024/01/01 06:18:49;;;;;;;3.13;2.35;;;;;;;6.38;99.94;99809.88;4970162;28;20195;-67
2024/01/01 06:21:26;;;;;;;5.45;4.28;;;;;;;6.38;100.00;99809.88;4972410;28;20222;-67
2024/01/01 06:24:00;;;;;;;7.25;4.78;;;;;;;6.28;100.00;99803.22;4964315;28;20592;-67
2024/01/01 06:26:32;;;;;;;4.45;2.72;;;;;;;6.31;100.00;99803.63;4969185;28;20275;-68
2024/01/01 06:29:05;;;;;;;6.95;2.85;;;;;;;6.22;100.00;99804.00;4972780;28;20294;-67
2024/01/01 06:31:40;;;;;;;10.85;3.90;;;;;;;6.05;100.00;99803.53;4957892;28;20274;-67
2024/01/01 06:34:13;;;;;;;7.22;3.20;;;;;;;6.14;100.00;99804.19;4969043;28;20205;-67
2024/01/01 06:36:45;;;;;;;7.35;5.20;;;;;;;6.33;100.00;99796.22;4968434;28;20222;-67
2024/01/01 06:39:20;;;;;;;5.00;3.90;;;;;;;6.36;99.26;99805.72;4963037;28;20206;-67
2024/01/01 06:41:53;;;;;;;5.05;3.63;;;;;;;6.36;99.12;99809.25;4963061;28;20294;-68
2024/01/01 06:44:27;;;;;;;3.90;3.28;;;;;;;6.40;99.12;99810.50;4968624;28;20241;-67
2024/01/01 06:47:05;;;;;;;3.70;2.67;;;;;;;6.39;98.47;99811.50;4956327;28;20250;-68
2024/01/01 06:49:37;;;;;;;6.00;3.28;;;;;;;6.48;98.50;99810.34;4966875;28;20207;-67
2024/01/01 06:52:11;;;;;;;5.82;4.03;;;;;;;6.57;97.82;99808.28;4972177;28;20619;-66
2024/01/01 06:54:46;;;;;;;5.18;2.58;;;;;;;6.50;97.45;99819.00;4965967;28;20215;-66
2024/01/01 06:57:19;;;;;;;2.83;2.38;;;;;;;6.58;97.44;99814.50;4960709;28;20199;-67
2024/01/01 06:59:54;;;;;;;3.22;2.92;;;;;;;6.49;97.67;99817.34;4964925;28;20651;-67
2024/01/01 07:02:30;;;;;;;4.15;3.25;;;;;;;6.54;97.57;99817.56;4968313;28;20234;-67
2024/01/01 07:05:04;;;;;;;5.10;2.35;;;;;;;6.58;97.25;99814.50;4961830;28;20218;-67
2024/01/01 07:07:39;;;;;;;3.20;2.83;;;;;;;6.51;97.19;99826.03;4968360;28;20199;-68
2024/01/01 07:10:12;;;;;;;4.20;2.30;;;;;;;6.48;97.72;99825.63;4964740;28;20222;-67
2024/01/01 07:12:44;;;;;;;7.72;4.03;;;;;;;6.51;97.89;99826.03;4969537;28;20216;-68
2024/01/01 07:15:16;;;;;;;3.00;1.55;;;;;;;6.61;96.79;99824.81;4959653;28;20684;-67
2024/01/01 07:17:50;;;;;;;5.70;2.92;;;;;;;6.49;97.45;99828.09;4959656;28;20214;-67
2024/01/01 07:20:23;;;;;;;5.75;2.28;;;;;;;6.46;97.72;99833.03;4962874;28;20203;-67
2024/01/01 07:22:56;;;;;;;4.43;2.42;;;;;;;6.59;97.11;99838.47;4969859;28;20697;-67
2024/01/01 07:25:30;;;;;;;5.47;3.47;;;;;;;6.68;96.43;99828.38;4964849;28;20227;-67
2024/01/01 07:28:03;;;;;;;7.30;2.88;;;;;;;6.70;96.24;99829.81;4961100;28;20200;-68
2024/01/01 07:30:37;;;;;;;2.50;2.10;;;;;;;6.63;96.30;99836.22;4971103;28;20599;-66
2024/01/01 07:33:17;;;;;;;2.55;1.45;;;;;;;6.61;96.24;99832.88;4974004;28;20698;-67
2024/01/01 07:35:51;;;;;;;3.67;1.92;;;;;;;6.56;96.50;99833.50;4964973;28;20227;-68
2024/01/01 07:38:23;;;;;;;3.60;2.22;;;;;;;6.72;96.18;99821.56;4971097;28;20214;-68
2024/01/01 07:40:57;;;;;;;2.75;1.88;;;;;;;6.72;96.00;99825.06;4966025;28;20235;-67
2024/01/01 07:43:29;;;;;;;5.95;2.70;;;;;;;6.89;95.76;99828.19;4971145;28;20578;-68
2024/01/01 07:46:00;;;;;;;5.30;3.15;;;;;;;7.03;94.19;99829.88;4966800;28;20606;-68
2024/01/01 07:48:37;;;;;;;3.22;3.03;;;;;;;7.03;94.24;99835.25;4973843;28;20574;-68
2024/01/01 07:51:11;;;;;;;2.38;1.73;;;;;;;7.07;93.81;99841.88;4966386;28;20298;-68
2024/01/01 07:53:44;;;;;;;2.78;2.58;;;;;;;6.93;94.51;99834.81;4974699;28;20821;-67
2024/01/01 07:56:17;;;;;;;4.28;2.08;;;;;;;7.07;93.66;99833.81;4967038;28;20208;-65
2024/01/01 07:58:51;;;;;;;4.80;2.65;;;;;;;7.09;93.58;99829.06;4971312;28;20679;-67
2024/01/01 08:01:25;;;;;;;4.93;2.00;;;;;;;7.07;93.24;99831.13;4973997;28;20192;-67
2024/01/01 08:04:00;;;;;;;4.30;2.15;;;;;;;7.02;93.52;99836.28;4975159;28;20547;-67
2024/01/01 08:06:32;;;;;;;2.78;1.77;;;;;;;7.12;93.47;99834.03;4964569;28;20258;-67
2024/01/01 08:09:05;;;;;;;3.72;1.63;;;;;;;7.25;93.13;99828.66;4966786;28;20576;-67
2024/01/01 08:11:38;;;;;;;2.92;1.73;;;;;;;7.18;92.81;99838.59;4966696;28;20203;-67
2024/01/01 08:14:14;;;;;;;1.73;1.25;;;;;;;7.22;92.89;99842.50;4964924;28;20196;-67
2024/01/01 08:16:47;;;;;;;3.45;2.58;;;;;;;7.30;92.62;99834.25;4963264;28;20752;-68
2024/01/01 08:19:22;;;;;;;7.53;3.25;;;;;;;7.30;92.93;99845.03;4971385;28;20196;-67
2024/01/01 08:21:53;;;;;;;3.28;1.95;;;;;;;7.52;91.61;99850.19;4970906;28;20262;-67
2024/01/01 08:24:29;;;;;;;3.42;2.05;;;;;;;7.66;90.20;99846.44;4960092;28;20290;-66
2024/01/01 08:27:01;;;;;;;5.47;1.98;;;;;;;7.79;89.78;99846.47;4967743;28;20200;-66
2024/01/01 08:29:34;;;;;;;9.38;3.45;;;;;;;7.79;89.16;99851.84;4958391;28;20628;-67
2024/01/01 08:32:09;;;;;;;1.98;1.77;;;;;;;7.78;89.30;99850.19;4965175;28;20198;-68
2024/01/01 08:34:46;;;;;;;11.48;2.13;;;;;;;7.83;89.18;99856.59;4962247;28;20657;-68
2024/01/01 08:37:19;;;;;;;9.55;2.15;;;;;;;7.77;89.04;99859.28;4975690;28;20191;-68
2024/01/01 08:39:52;;;;;;;11.65;2.20;;;;;;;7.85;89.35;99862.59;4973943;28;20223;-68
2024/01/01 08:42:25;;;;;;;3.05;1.38;;;;;;;8.04;89.21;99860.06;4977088;28;20268;-68
2024/01/01 08:45:00;;;;;;;3.08;1.75;;;;;;;8.02;88.08;99860.28;4970158;28;20222;-67
2024/01/01 08:47:36;;;;;;;3.05;1.33;;;;;;;7.84;88.73;99860.13;4966194;28;20196;-67
2024/01/01 08:50:14;;;;;;;3.15;1.73;;;;;;;7.75;89.02;99866.72;4963009;28;20202;-67
2024/01/01 08:52:46;;;;;;;2.95;1.75;;;;;;;7.72;89.77;99861.78;4956256;28;20199;-68
2024/01/01 08:55:17;;;;;;;2.72;1.60;;;;;;;7.91;89.50;99866.31;4973901;28;20282;-67
2024/01/01 08:57:50;;;;;;;1.20;1.08;;;;;;;7.96;88.53;99868.38;4966836;28;20290;-68
2024/01/01 09:00:23;;;;;;;2.75;1.92;;;;;;;8.09;88.59;99871.03;4966501;28;20209;-69
2024/01/01 09:02:58;;;;;;;3.55;2.20;;;;;;;7.93;88.47;99869.63;4973797;28;20223;-67
2024/01/01 09:05:33;;;;;;;4.35;3.15;;;;;;;8.01;88.79;99874.78;4971907;28;20282;-67
2024/01/01 09:08:05;;;;;;;8.63;2.72;;;;;;;7.93;88.81;99874.19;4973425;28;20203;-68
2024/01/01 09:10:41;;;;;;;3.28;2.08;;;;;;;7.92;89.03;99877.91;4960107;28;20250;-68
2024/01/01 09:13:15;;;;;;;3.55;2.35;;;;;;;8.04;88.37;99882.44;4962761;28;20231;-68
2024/01/01 09:15:50;;;;;;;4.65;1.90;;;;;;;7.97;88.88;99880.81;4961981;28;20222;-67
2024/01/01 09:18:21;;;;;;;5.03;3.60;;;;;;;8.81;90.81;99883.47;4965929;28;20207;-66
2024/01/01 09:20:55;;;;;;;3.15;2.08;;;;;;;9.26;85.61;99889.63;4959086;28;20204;-67
2024/01/01 09:23:29;;;;;;;2.50;1.10;;;;;;;9.47;82.46;99887.41;4948158;28;20191;-66
2024/01/01 09:26:01;;;;;;;4.25;2.33;;;;;;;9.89;87.64;99885.81;4970860;28;20599;-68
2024/01/01 09:28:33;;;;;;;2.40;1.60;;;;;;;9.87;79.72;99885.22;4966719;28;20187;-67
2024/01/01 09:31:05;;;;;;;1.87;1.50;;;;;;;9.61;87.42;99890.84;4973332;28;20521;-69
2024/01/01 09:33:41;;;;;;;2.60;1.77;;;;;;;9.70;80.77;99889.50;4968499;28;20546;-67
2024/01/01 09:36:14;;;;;;;3.20;2.83;;;;;;;9.48;82.05;99888.25;4971248;28;20440;-68
2024/01/01 09:38:48;;;;;;;3.15;2.25;;;;;;;9.39;87.43;99886.88;4972251;28;20198;-70
2024/01/01 09:41:20;;;;;;;2.70;2.10;;;;;;;8.96;81.98;99887.53;4958975;28;20200;-67
2024/01/01 09:43:53;;;;;;;7.57;2.70;;;;;;;9.23;86.48;99881.97;4966392;28;20450;-68
2024/01/01 09:46:32;;;;;;;4.03;1.57;;;;;;;9.65;85.32;99886.63;4961228;28;20858;-67
2024/01/01 09:49:05;;;;;;;1.85;1.50;;;;;;;9.06;82.07;99882.50;4955539;28;20559;-67
2024/01/01 09:51:45;;;;;;;3.03;1.97;;;;;;;9.17;84.26;99894.47;4972253;28;20306;-68
2024/01/01 09:54:19;;;;;;;2.43;1.63;;;;;;;8.90;82.91;99884.88;4964306;28;20484;-68
2024/01/01 09:56:52;;;;;;;1.60;1.50;;;;;;;9.05;81.55;99897.03;4966927;28;20548;-69
2024/01/01 09:59:40;;;;;;;2.50;1.55;;;;;;;9.32;82.42;99897.69;4967277;28;20418;-68
2024/01/01 10:02:14;;;;;;;3.33;2.22;;;;;;;8.82;84.96;99885.13;4963635;28;20247;-67
2024/01/01 10:04:51;;;;;;;4.30;2.25;;;;;;;8.82;83.75;99883.25;4972251;28;20199;-69
2024/01/01 10:07:33;;;;;;;3.78;2.15;;;;;;;9.74;87.36;99884.47;4952367;28;20218;-67
2024/01/01 10:10:06;;;;;;;3.43;2.67;;;;;;;9.46;80.69;99882.22;4970825;28;20207;-67
2024/01/01 10:12:45;;;;;;;10.63;2.73;;;;;;;9.50;83.00;99878.03;4968889;28;20422;-70
2024/01/01 10:15:18;;;;;;;5.63;1.50;;;;;;;10.00;84.66;99885.09;4966220;28;20802;-65
2024/01/01 10:17:53;;;;;;;2.37;2.17;;;;;;;9.34;81.72;99873.19;4968078;28;20416;-68
2024/01/01 10:20:28;;;;;;;1.93;1.37;;;;;;;8.93;85.52;99870.94;4970185;28;20479;-65
2024/01/01 10:23:30;;;;;;;6.00;1.20;;;;;;;9.28;83.88;99879.47;4967843;28;20445;-69
2024/01/01 10:26:10;;;;;;;2.97;1.45;;;;;;;8.95;81.38;99883.19;4969928;28;20486;-69
2024/01/01 10:28:47;;;;;;;7.60;1.77;;;;;;;8.85;84.71;99890.94;4964072;28;20277;-68
2024/01/01 10:31:27;;;;;;;3.23;2.13;;;;;;;8.79;82.49;99883.69;4962275;28;20483;-69
2024/01/01 10:34:03;;;;;;;4.28;1.40;;;;;;;8.78;84.49;99887.41;4964490;28;20463;-69
2024/01/01 10:36:35;;;;;;;1.73;1.63;;;;;;;9.16;82.15;99882.00;4961384;28;20216;-66
2024/01/01 10:39:10;;;;;;;5.60;1.73;;;;;;;9.26;81.85;99885.06;4968558;28;20433;-67
2024/01/01 10:41:47;;;;;;;4.13;1.77;;;;;;;9.58;82.46;99894.00;4960985;28;20971;-68
2024/01/01 10:44:20;;;;;;;2.40;1.70;;;;;;;9.38;81.81;99893.31;4966168;28;20671;-68
2024/01/01 10:46:59;;;;;;;2.40;1.20;;;;;;;8.89;83.70;99881.34;4968972;28;20467;-69
2024/01/01 10:49:35;;;;;;;3.77;2.10;;;;;;;9.45;85.01;99889.50;4964427;28;20282;-67
2024/01/01 10:52:49;;;;;;;1.70;1.17;;;;;;;9.25;81.91;99879.88;4969199;28;20456;-69
2024/01/01 10:55:55;;;;;;;2.13;1.47;;;;;;;9.22;84.53;99885.72;4972612;28;20225;-68
2024/01/01 10:58:43;;;;;;;2.20;2.00;;;;;;;9.76;85.36;99883.22;4961171;28;20799;-68
2024/01/01 11:01:19;;;;;;;2.20;1.43;;;;;;;9.51;79.27;99885.09;4959614;28;20431;-68
2024/01/01 11:03:55;;;;;;;4.83;1.47;;;;;;;9.75;83.42;99881.56;4955379;28;20520;-68
2024/01/01 11:06:39;;;;;;;4.30;1.60;;;;;;;9.69;79.10;99877.03;4964800;28;20513;-68
2024/01/01 11:09:34;;;;;;;16.87;2.30;;;;;;;9.75;78.97;99886.97;4968451;28;20950;-68
2024/01/01 11:12:10;;;;;;;8.30;2.90;;;;;;;9.42;78.22;99891.81;4964865;28;20476;-68
2024/01/01 11:14:48;;;;;;;3.13;1.87;;;;;;;9.90;79.15;99894.75;4967648;28;20799;-67
2024/01/01 11:17:28;;;;;;;2.43;1.33;;;;;;;10.14;78.97;99902.00;4971199;28;20529;-67
2024/01/01 11:20:06;;;;;;;4.23;2.20;;;;;;;9.83;79.51;99900.19;4967979;28;20960;-68
2024/01/01 11:22:43;;;;;;;2.20;1.80;;;;;;;9.49;78.52;99893.41;4974808;28;20453;-67
2024/01/01 11:25:34;;;;;;;2.20;1.37;;;;;;;9.60;80.47;99889.19;4963841;28;20812;-69
2024/01/01 11:28:08;;;;;;;1.50;1.00;;;;;;;9.49;80.89;99888.00;4970996;28;20453;-68
2024/01/01 11:30:43;;;;;;;5.07;2.03;;;;;;;9.76;82.78;99883.22;4970548;28;20414;-68
2024/01/01 11:33:20;;;;;;;2.87;1.83;;;;;;;9.71;80.27;99880.38;4964271;28;20454;-66
2024/01/01 11:35:52;;;;;;;3.13;1.77;;;;;;;9.32;81.29;99881.50;4969462;28;20985;-68
2024/01/01 11:38:30;;;;;;;1.93;1.07;;;;;;;9.52;86.07;99881.34;4966275;28;20970;-68
2024/01/01 11:41:05;;;;;;;3.00;1.73;;;;;;;9.51;85.22;99885.94;4976932;28;20832;-68
2024/01/01 11:43:40;;;;;;;2.57;1.63;;;;;;;9.49;86.37;99885.31;4961397;28;20814;-69
2024/01/01 11:46:13;;;;;;;2.70;1.60;;;;;;;8.81;85.54;99878.09;4975954;28;21045;-71
2024/01/01 11:48:55;;;;;;;3.13;1.57;;;;;;;9.67;84.87;99879.16;4969901;28;20452;-69
2024/01/01 11:51:27;;;;;;;2.10;1.47;;;;;;;9.55;82.77;99884.44;4967145;28;20992;-68
2024/01/01 11:54:09;;;;;;;3.50;1.60;;;;;;;9.47;82.88;99878.47;4964201;28;20988;-68
2024/01/01 11:56:45;;;;;;;2.60;2.00;;;;;;;9.69;82.78;99870.81;4967310;28;20432;-67
2024/01/01 11:59:21;;;;;;;2.57;1.40;;;;;;;10.05;82.47;99876.31;4972367;28;20477;-65
2024/01/01 12:01:54;;;;;;;9.23;2.33;;;;;;;10.25;81.65;99863.44;4968523;28;20613;-69
2024/01/01 12:04:28;;;;;;;3.63;1.87;;;;;;;10.31;81.80;99867.13;4975380;28;21017;-67
2024/01/01 12:07:00;;;;;;;2.63;1.80;;;;;;;10.95;80.57;99876.50;4974292;28;20447;-68
2024/01/01 12:09:32;;;;;;;2.70;2.07;;;;;;;10.55;77.74;99876.22;4964446;28;20455;-68